Time;durP1;ratioP1;P1;durP2;ratioP2;P2;SDS_P1;SDS_P2;PMS_P1;PMS_P2;Temp;Humidity;BMP_temperature;BMP_pressure;BME280_temperature;BME280_humidity;BME280_pressure;Samples;Min_cycle;Max_cycle;Signal;HPM_P1;HPM_P2
2022/02/21 00:00:44;;;;;;;;;1.50;1.50;;;;;19.59;38.38;100545.09;5075571;27;50984;-52
2022/02/21 00:03:10;;;;;;;;;1.25;1.00;;;;;19.59;38.50;100539.59;5076117;27;51017;-50
2022/02/21 00:05:36;;;;;;;;;3.00;2.00;;;;;19.58;38.43;100544.25;5075203;27;51848;-52
2022/02/21 00:08:01;;;;;;;;;1.50;1.00;;;;;19.58;38.26;100547.00;5075844;27;51118;-52
2022/02/21 00:10:27;;;;;;;;;1.75;1.00;;;;;19.58;38.22;100544.25;5075629;28;51187;-52
2022/02/21 00:12:53;;;;;;;;;2.50;2.00;;;;;19.58;38.63;100546.16;5075441;28;51148;-51
2022/02/21 00:15:23;;;;;;;;;1.50;0.75;;;;;19.58;38.39;100576.38;5075579;27;51042;-50
2022/02/21 00:17:50;;;;;;;;;2.75;2.75;;;;;19.58;38.25;100566.22;5075808;27;50939;-50
2022/02/21 00:20:15;;;;;;;;;4.50;2.00;;;;;19.58;38.09;100566.22;5075445;27;51133;-49
2022/02/21 00:22:41;;;;;;;;;2.00;2.00;;;;;19.59;38.27;100586.31;5075627;27;51016;-47
2022/02/21 00:25:08;;;;;;;;;3.75;1.75;;;;;19.57;38.34;100600.28;5078694;28;51153;-53
2022/02/21 00:27:34;;;;;;;;;2.25;0.25;;;;;19.57;38.07;100599.44;5079210;27;51008;-52
2022/02/21 00:30:00;;;;;;;;;2.00;0.75;;;;;19.56;37.84;100597.75;5078950;27;51069;-48
2022/02/21 00:32:26;;;;;;;;;2.00;1.00;;;;;19.56;37.98;100616.97;5079106;28;51275;-52
2022/02/21 00:34:51;;;;;;;;;4.00;1.25;;;;;19.55;37.93;100627.13;5094575;27;53801;-51
2022/02/21 00:37:16;;;;;;;;;1.25;1.25;;;;;19.55;37.87;100634.50;5078844;27;51086;-53
2022/02/21 00:39:42;;;;;;;;;2.50;1.00;;;;;19.55;37.82;100623.50;5079031;27;51126;-51
2022/02/21 00:42:07;;;;;;;;;1.00;1.00;;;;;19.55;38.02;100629.00;5079139;27;51179;-49
2022/02/21 00:44:33;;;;;;;;;4.00;1.00;;;;;19.55;37.78;100631.75;5078723;28;51784;-51
2022/02/21 00:47:00;;;;;;;;;1.50;0.00;;;;;19.53;37.73;100634.72;5079080;27;50898;-53
2022/02/21 00:49:25;;;;;;;;;4.75;1.00;;;;;19.53;37.85;100631.97;5078762;27;51103;-50
2022/02/21 00:51:50;;;;;;;;;1.50;1.00;;;;;19.53;37.80;100647.63;5078953;28;50993;-50
2022/02/21 00:54:16;;;;;;;;;1.75;1.00;;;;;19.54;37.82;100646.56;5078588;27;51398;-51
2022/02/21 00:56:41;;;;;;;;;6.00;2.00;;;;;19.53;37.82;100661.38;5078500;27;51075;-53
2022/02/21 00:59:07;;;;;;;;;0.75;0.50;;;;;19.51;37.92;100675.31;5078652;27;51242;-52
2022/02/21 01:01:32;;;;;;;;;1.75;1.75;;;;;19.51;37.68;100671.72;5078680;27;51052;-51
2022/02/21 01:03:57;;;;;;;;;2.00;0.75;;;;;19.52;37.90;100706.38;5078463;27;50953;-51
2022/02/21 01:06:23;;;;;;;;;0.75;0.75;;;;;19.51;37.73;100733.03;5078424;27;50950;-51
2022/02/21 01:08:48;;;;;;;;;2.50;1.50;;;;;19.50;37.65;100745.06;5078905;27;51063;-53
2022/02/21 01:11:14;;;;;;;;;1.00;1.00;;;;;19.50;37.76;100761.56;5078367;27;51443;-49
2022/02/21 01:13:40;;;;;;;;;1.50;0.25;;;;;19.49;37.81;100776.34;5077955;28;51099;-51
2022/02/21 01:16:06;;;;;;;;;0.75;0.75;;;;;19.51;37.73;100735.75;5078371;27;51055;-52
2022/02/21 01:18:32;;;;;;;;;1.00;1.00;;;;;19.49;37.74;100720.56;5078378;27;51117;-52
2022/02/21 01:20:57;;;;;;;;;6.00;0.50;;;;;19.49;37.72;100726.06;5077155;27;51219;-47
2022/02/21 01:23:23;;;;;;;;;1.00;0.25;;;;;19.48;37.75;100729.84;5078203;27;52246;-50
2022/02/21 01:25:48;;;;;;;;;2.50;1.00;;;;;19.48;37.54;100727.94;5078046;27;51061;-48
2022/02/21 01:28:13;;;;;;;;;1.00;1.00;;;;;19.48;37.77;100730.69;5078258;27;51150;-49
2022/02/21 01:30:39;;;;;;;;;0.00;0.00;;;;;19.47;37.77;100744.66;5078231;27;51350;-50
2022/02/21 01:33:04;;;;;;;;;2.00;0.75;;;;;19.47;37.62;100739.16;5077924;27;51847;-52
2022/02/21 01:35:30;;;;;;;;;0.75;0.25;;;;;19.45;37.36;100747.63;5076883;27;51098;-50
2022/02/21 01:37:55;;;;;;;;;0.00;0.00;;;;;19.45;37.50;100752.25;5076640;28;51111;-49
2022/02/21 01:40:21;;;;;;;;;0.75;0.75;;;;;19.44;37.76;100756.91;5077964;27;51045;-52
2022/02/21 01:42:47;;;;;;;;;0.00;0.00;;;;;19.44;37.50;100776.16;5078015;27;52276;-50
2022/02/21 01:45:13;;;;;;;;;1.00;0.00;;;;;19.43;37.77;100801.94;5078022;27;51103;-51
2022/02/21 01:47:38;;;;;;;;;0.50;0.50;;;;;19.43;37.60;100826.66;5078384;27;51064;-52
2022/02/21 01:50:04;;;;;;;;;2.25;0.00;;;;;19.42;37.61;100786.50;5077985;27;50984;-49
2022/02/21 01:52:31;;;;;;;;;0.00;0.00;;;;;19.41;37.72;100760.09;5077473;27;51914;-51
2022/02/21 01:54:57;;;;;;;;;0.00;0.00;;;;;19.42;37.71;100771.94;5077729;28;51124;-52
2022/02/21 01:57:25;;;;;;;;;0.00;0.00;;;;;19.41;37.55;100773.84;5077818;27;51175;-53
2022/02/21 01:59:50;;;;;;;;;0.75;0.00;;;;;19.40;37.54;100791.38;5077882;27;51166;-52
2022/02/21 02:02:16;;;;;;;;;0.00;0.00;;;;;19.41;37.61;100778.50;5077420;27;51959;-53
2022/02/21 02:04:41;;;;;;;;;0.25;0.25;;;;;19.39;37.68;100770.47;5077648;27;51079;-52
2022/02/21 02:07:11;;;;;;;;;1.00;0.00;;;;;19.39;37.47;100773.22;5077650;27;51183;-52
2022/02/21 02:09:37;;;;;;;;;0.00;0.00;;;;;19.38;37.48;100768.75;5077805;27;50961;-48
2022/02/21 02:12:03;;;;;;;;;3.00;0.50;;;;;19.37;37.47;100761.59;5077368;27;51807;-49
2022/02/21 02:14:30;;;;;;;;;0.00;0.00;;;;;19.37;37.51;100766.22;5077455;28;51010;-52
2022/02/21 02:17:00;;;;;;;;;0.50;0.50;;;;;19.36;37.52;100754.41;5077436;27;51039;-50
2022/02/21 02:19:25;;;;;;;;;0.75;0.00;;;;;19.36;37.50;100748.91;5077881;27;51008;-48
2022/02/21 02:21:55;;;;;;;;;1.50;0.75;;;;;19.35;37.37;100736.25;5077243;27;51820;-49
2022/02/21 02:24:22;;;;;;;;;0.00;0.00;;;;;19.35;37.18;100746.38;5077445;27;51164;-51
2022/02/21 02:26:52;;;;;;;;;0.75;0.75;;;;;19.33;37.47;100739.22;5076766;27;51067;-51
2022/02/21 02:29:17;;;;;;;;;0.75;0.75;;;;;19.33;37.56;100749.34;5077440;27;51283;-52
2022/02/21 02:31:42;;;;;;;;;0.00;0.00;;;;;19.32;37.38;100742.19;5076446;27;51258;-49
2022/02/21 02:34:08;;;;;;;;;0.00;0.00;;;;;19.31;37.45;100746.84;5077007;27;51045;-52
2022/02/21 02:36:33;;;;;;;;;0.50;0.50;;;;;19.31;37.39;100746.00;5077169;27;51012;-49
2022/02/21 02:38:58;;;;;;;;;0.75;0.00;;;;;19.31;37.51;100740.50;5077477;27;51369;-52
2022/02/21 02:41:23;;;;;;;;;0.00;0.00;;;;;19.30;37.40;100739.66;5076612;27;51034;-52
2022/02/21 02:43:49;;;;;;;;;1.75;0.00;;;;;19.29;37.49;100751.69;5076976;27;50980;-51
2022/02/21 02:46:14;;;;;;;;;0.00;0.00;;;;;19.29;37.41;100753.59;5076977;28;51295;-48
2022/02/21 02:48:39;;;;;;;;;0.00;0.00;;;;;19.29;37.33;100748.13;5077126;27;51321;-51
2022/02/21 02:51:05;;;;;;;;;0.00;0.00;;;;;19.28;37.50;100755.50;5076672;27;51240;-53
2022/02/21 02:53:30;;;;;;;;;2.00;0.00;;;;;19.29;37.61;100764.59;5076976;27;51188;-52
2022/02/21 02:55:56;;;;;;;;;1.00;1.00;;;;;19.27;37.26;100751.06;5076787;27;51082;-51
2022/02/21 02:58:22;;;;;;;;;2.50;0.50;;;;;19.28;37.32;100757.41;5077050;27;51262;-50
2022/02/21 03:00:47;;;;;;;;;1.00;0.00;;;;;19.27;37.27;100753.78;5076505;27;51962;-50
2022/02/21 03:03:13;;;;;;;;;0.00;0.00;;;;;19.26;37.44;100754.03;5076710;27;50998;-53
2022/02/21 03:05:39;;;;;;;;;0.00;0.00;;;;;19.27;37.38;100758.44;5076842;27;51042;-53
2022/02/21 03:08:04;;;;;;;;;1.00;1.00;;;;;19.25;37.36;100752.34;5076916;27;51307;-53
2022/02/21 03:10:29;;;;;;;;;0.00;0.00;;;;;19.25;37.52;100744.94;5076286;27;52663;-50
2022/02/21 03:12:55;;;;;;;;;1.00;0.00;;;;;19.25;37.25;100747.69;5076275;27;51112;-53
2022/02/21 03:15:20;;;;;;;;;1.75;0.00;;;;;19.25;37.20;100738.59;5076817;27;50997;-48
2022/02/21 03:17:45;;;;;;;;;4.00;1.00;;;;;19.23;37.48;100736.06;5076843;27;51016;-50
2022/02/21 03:20:11;;;;;;;;;0.25;0.00;;;;;19.24;37.13;100736.91;5076192;27;50911;-49
2022/02/21 03:22:36;;;;;;;;;0.75;0.00;;;;;19.22;37.34;100736.31;5076368;27;51064;-49
2022/02/21 03:25:02;;;;;;;;;1.75;0.00;;;;;19.22;37.29;100733.56;5076292;27;51060;-53
2022/02/21 03:27:27;;;;;;;;;2.75;1.00;;;;;19.22;37.28;100747.28;5076754;27;51184;-49
2022/02/21 03:29:52;;;;;;;;;2.00;0.00;;;;;19.21;37.09;100745.59;5076065;27;51971;-51
2022/02/21 03:32:18;;;;;;;;;1.75;1.00;;;;;19.21;37.14;100745.59;5076148;27;50949;-51
2022/02/21 03:34:43;;;;;;;;;1.25;1.00;;;;;19.20;37.23;100746.66;5076354;27;51129;-50
2022/02/21 03:37:09;;;;;;;;;1.00;1.00;;;;;19.20;37.10;100743.91;5076227;27;51059;-53
2022/02/21 03:39:34;;;;;;;;;1.00;0.00;;;;;19.20;37.34;100741.16;5075994;27;51983;-51
2022/02/21 03:41:59;;;;;;;;;1.00;0.00;;;;;19.18;37.35;100741.38;5076176;27;51345;-51
2022/02/21 03:44:25;;;;;;;;;0.00;0.00;;;;;19.17;37.31;100742.44;5075148;28;51127;-49
2022/02/21 03:46:50;;;;;;;;;2.75;1.00;;;;;19.18;37.12;100755.13;5076314;27;51197;-53
2022/02/21 03:49:16;;;;;;;;;1.00;0.25;;;;;19.18;36.99;100748.78;5075907;27;51009;-49
2022/02/21 03:51:42;;;;;;;;;0.75;0.75;;;;;19.18;37.14;100748.78;5076045;27;51189;-53
2022/02/21 03:54:08;;;;;;;;;2.00;0.00;;;;;19.16;37.14;100738.00;5076321;27;51254;-50
2022/02/21 03:56:34;;;;;;;;;0.50;0.50;;;;;19.16;37.21;100748.13;5076122;28;51162;-49
2022/02/21 03:58:59;;;;;;;;;0.75;0.75;;;;;19.15;37.07;100750.03;5077934;27;51085;-52
2022/02/21 04:01:25;;;;;;;;;0.75;0.75;;;;;19.15;37.25;100773.91;5079714;27;51075;-54
2022/02/21 04:03:50;;;;;;;;;1.25;0.75;;;;;19.15;36.80;100769.25;5079821;27;51079;-52
2022/02/21 04:06:16;;;;;;;;;4.00;1.00;;;;;19.15;37.15;100762.94;5079674;28;51220;-50
2022/02/21 04:08:41;;;;;;;;;0.75;0.75;;;;;19.13;37.17;100776.03;5079757;28;50899;-50
2022/02/21 04:11:07;;;;;;;;;0.75;0.50;;;;;19.14;37.07;100769.47;5079125;27;51002;-52
2022/02/21 04:13:32;;;;;;;;;2.00;1.50;;;;;19.13;37.06;100771.38;5079229;27;51300;-47
2022/02/21 04:15:58;;;;;;;;;2.00;0.00;;;;;19.13;37.04;100771.38;5078421;27;51349;-50
2022/02/21 04:18:23;;;;;;;;;3.00;1.00;;;;;19.13;36.88;100762.31;5079225;27;50949;-52
2022/02/21 04:20:49;;;;;;;;;3.00;0.00;;;;;19.12;37.11;100752.38;5079495;27;50938;-51
2022/02/21 04:23:14;;;;;;;;;4.00;0.00;;;;;19.11;37.02;100773.50;5079317;27;51102;-47
2022/02/21 04:25:40;;;;;;;;;1.00;0.00;;;;;19.11;36.99;100779.00;5079248;27;51039;-53
2022/02/21 04:28:05;;;;;;;;;4.00;0.00;;;;;19.10;37.08;100754.50;5079296;27;51013;-49
2022/02/21 04:30:31;;;;;;;;;3.00;0.00;;;;;19.10;36.85;100771.81;5078882;27;51208;-49
2022/02/21 04:32:57;;;;;;;;;1.50;0.00;;;;;19.10;37.18;100762.75;5079173;28;51196;-50
2022/02/21 04:35:24;;;;;;;;;1.00;0.75;;;;;19.10;37.16;100766.34;5079207;27;51244;-51
2022/02/21 04:37:50;;;;;;;;;1.00;1.00;;;;;19.10;37.15;100770.97;5078822;28;51910;-52
2022/02/21 04:40:22;;;;;;;;;0.00;0.00;;;;;19.08;36.90;100760.22;5079061;27;51096;-49
2022/02/21 04:42:52;;;;;;;;;4.00;0.00;;;;;19.08;37.09;100749.25;5079474;27;51080;-53
2022/02/21 04:45:18;;;;;;;;;2.25;1.00;;;;;19.08;37.19;100751.13;5079405;27;51084;-52
2022/02/21 04:47:44;;;;;;;;;1.00;0.00;;;;;19.08;36.97;100756.63;5077358;28;52081;-52
2022/02/21 04:50:10;;;;;;;;;2.25;1.00;;;;;19.06;36.99;100759.56;5078921;28;51033;-48
2022/02/21 04:52:37;;;;;;;;;1.00;1.00;;;;;19.06;36.79;100765.06;5078743;27;51066;-50
2022/02/21 04:55:06;;;;;;;;;0.75;0.25;;;;;19.06;36.98;100766.97;5078941;27;51028;-51
2022/02/21 04:57:31;;;;;;;;;2.00;0.50;;;;;19.04;36.97;100746.06;5077209;28;51974;-50
2022/02/21 04:59:56;;;;;;;;;1.25;1.00;;;;;19.05;36.97;100746.91;5078883;27;51002;-55
2022/02/21 05:02:22;;;;;;;;;0.25;0.25;;;;;19.03;37.00;100733.38;5078896;27;51060;-51
2022/02/21 05:04:47;;;;;;;;;1.00;0.00;;;;;19.04;36.97;100745.22;5078722;27;51161;-51
2022/02/21 05:07:13;;;;;;;;;0.00;0.00;;;;;19.04;36.88;100747.97;5078346;27;50978;-47
2022/02/21 05:09:38;;;;;;;;;1.50;1.00;;;;;19.04;37.07;100756.19;5077650;27;51009;-50
2022/02/21 05:12:04;;;;;;;;;1.00;0.50;;;;;19.03;36.93;100755.34;5078528;27;51121;-47
2022/02/21 05:14:29;;;;;;;;;0.00;0.00;;;;;19.03;37.09;100751.75;5078474;27;51050;-53
2022/02/21 05:16:55;;;;;;;;;1.00;0.00;;;;;19.01;37.12;100754.72;5078442;27;51718;-47
2022/02/21 05:19:20;;;;;;;;;1.50;1.50;;;;;19.01;37.17;100768.47;5078494;27;51261;-48
2022/02/21 05:21:46;;;;;;;;;1.25;0.25;;;;;19.02;37.05;100761.91;5078376;27;51080;-53
2022/02/21 05:24:11;;;;;;;;;2.00;0.00;;;;;19.02;36.84;100752.81;5078594;27;51173;-51
2022/02/21 05:26:37;;;;;;;;;0.50;0.00;;;;;19.01;37.02;100756.63;5078154;27;51937;-52
2022/02/21 05:29:02;;;;;;;;;0.50;0.50;;;;;19.01;36.94;100762.97;5078492;27;51006;-52
2022/02/21 05:31:29;;;;;;;;;1.00;0.00;;;;;19.01;36.83;100749.25;5078203;27;51135;-49
2022/02/21 05:33:54;;;;;;;;;2.50;1.75;;;;;18.99;36.91;100767.84;5094262;27;51381;-48
2022/02/21 05:36:20;;;;;;;;;1.00;0.00;;;;;18.99;36.76;100765.09;5077856;27;51879;-52
2022/02/21 05:38:46;;;;;;;;;0.25;0.25;;;;;18.98;36.99;100766.16;5078130;27;50900;-51
2022/02/21 05:41:11;;;;;;;;;0.00;0.00;;;;;18.99;36.78;100765.09;5078033;27;51178;-50
2022/02/21 05:43:37;;;;;;;;;1.00;0.00;;;;;18.99;36.86;100767.00;5078471;27;51264;-50
2022/02/21 05:46:03;;;;;;;;;0.75;0.75;;;;;18.97;36.90;100760.88;5077878;27;51749;-50
2022/02/21 05:48:29;;;;;;;;;1.00;0.25;;;;;18.97;36.96;100745.25;5078193;28;50968;-53
2022/02/21 05:50:54;;;;;;;;;1.00;1.00;;;;;18.97;36.80;100755.38;5077838;27;50939;-52
2022/02/21 05:53:19;;;;;;;;;0.00;0.00;;;;;18.97;37.20;100744.41;5078241;27;50905;-50
2022/02/21 05:55:45;;;;;;;;;0.00;0.00;;;;;18.96;36.85;100753.66;5077694;27;51712;-53
2022/02/21 05:58:10;;;;;;;;;0.50;0.50;;;;;18.95;36.69;100750.09;5077858;27;51115;-52
2022/02/21 06:00:36;;;;;;;;;1.50;0.00;;;;;18.96;37.00;100761.91;5077952;27;51115;-48
2022/02/21 06:03:01;;;;;;;;;0.00;0.00;;;;;18.95;37.12;100760.22;5077798;27;51201;-50
2022/02/21 06:05:27;;;;;;;;;1.75;0.75;;;;;18.95;36.89;100783.03;5077444;27;51674;-50
2022/02/21 06:07:52;;;;;;;;;0.25;0.00;;;;;18.94;36.90;100786.84;5077450;27;51110;-50
2022/02/21 06:10:18;;;;;;;;;4.00;0.00;;;;;18.94;36.80;100778.59;5077485;27;51228;-52
2022/02/21 06:12:43;;;;;;;;;1.25;0.50;;;;;18.94;36.96;100788.72;5077809;27;51012;-52
2022/02/21 06:15:09;;;;;;;;;1.75;1.00;;;;;18.93;36.85;100785.16;5077055;27;51057;-51
2022/02/21 06:17:34;;;;;;;;;0.00;0.00;;;;;18.93;36.80;100798.03;5077484;27;51287;-50
2022/02/21 06:19:59;;;;;;;;;1.75;1.25;;;;;18.92;36.78;100797.19;5077764;27;51048;-51
2022/02/21 06:22:25;;;;;;;;;3.00;2.00;;;;;18.93;36.94;100806.25;5077238;27;51346;-51
2022/02/21 06:24:50;;;;;;;;;1.25;0.00;;;;;18.92;36.89;100797.19;5076826;27;51756;-52
2022/02/21 06:27:16;;;;;;;;;0.00;0.00;;;;;18.92;36.81;100799.94;5077162;27;51136;-52
2022/02/21 06:29:41;;;;;;;;;0.00;0.00;;;;;18.91;36.92;100790.00;5077587;27;51057;-48
2022/02/21 06:32:06;;;;;;;;;1.00;1.00;;;;;18.91;36.83;100798.25;5077211;27;50942;-52
2022/02/21 06:34:32;;;;;;;;;0.50;0.50;;;;;18.91;36.60;100802.91;5075532;27;52237;-52
2022/02/21 06:36:57;;;;;;;;;0.50;0.00;;;;;18.90;36.92;100796.56;5077050;27;51050;-52
2022/02/21 06:39:23;;;;;;;;;0.00;0.00;;;;;18.90;36.89;100802.06;5077074;27;51121;-51
2022/02/21 06:41:51;;;;;;;;;4.50;0.00;;;;;18.90;36.76;100809.44;5077391;27;51272;-53
2022/02/21 06:44:17;;;;;;;;;1.25;0.00;;;;;18.89;36.83;100805.84;5076971;27;51080;-53
2022/02/21 06:46:43;;;;;;;;;0.00;0.00;;;;;18.89;36.76;100794.88;5077244;27;51036;-49
2022/02/21 06:49:12;;;;;;;;;1.00;0.00;;;;;18.89;36.95;100802.28;5077198;28;51069;-50
2022/02/21 06:51:38;;;;;;;;;1.75;1.00;;;;;18.89;36.89;100805.00;5076946;27;51334;-53
2022/02/21 06:54:05;;;;;;;;;1.00;1.00;;;;;18.88;36.67;100811.56;5076888;28;51096;-51
2022/02/21 06:56:31;;;;;;;;;2.00;0.00;;;;;18.89;36.73;100818.75;5075264;28;51028;-51
2022/02/21 06:58:56;;;;;;;;;1.00;0.00;;;;;18.87;36.85;100826.34;5077020;27;51111;-51
2022/02/21 07:01:21;;;;;;;;;1.00;1.00;;;;;18.87;36.78;100824.44;5076895;27;51271;-51
2022/02/21 07:03:48;;;;;;;;;2.75;0.75;;;;;18.86;36.60;100831.00;5076473;27;51017;-52
2022/02/21 07:06:14;;;;;;;;;0.00;0.00;;;;;18.86;36.90;100836.47;5076525;27;51259;-48
2022/02/21 07:08:41;;;;;;;;;0.00;0.00;;;;;18.86;36.87;100841.09;5076592;27;51102;-52
2022/02/21 07:11:06;;;;;;;;;1.00;0.00;;;;;18.85;37.06;100853.13;5076460;27;50981;-52
2022/02/21 07:13:32;;;;;;;;;0.00;0.00;;;;;18.85;36.93;100847.66;5075907;27;51003;-51
2022/02/21 07:15:57;;;;;;;;;0.00;0.00;;;;;18.85;36.72;100850.38;5076568;27;51081;-50
2022/02/21 07:18:23;;;;;;;;;0.00;0.00;;;;;18.84;36.61;100835.81;5076824;28;51044;-50
2022/02/21 07:20:48;;;;;;;;;2.25;1.00;;;;;18.84;36.87;100838.56;5076441;27;51227;-47
2022/02/21 07:23:14;;;;;;;;;0.00;0.00;;;;;18.84;36.92;100837.72;5076164;27;51114;-53
2022/02/21 07:25:39;;;;;;;;;0.00;0.00;;;;;18.83;36.78;100853.34;5075696;27;50965;-49
2022/02/21 07:28:04;;;;;;;;;0.25;0.00;;;;;18.82;36.73;100857.16;5076233;27;51168;-52
2022/02/21 07:30:30;;;;;;;;;0.50;0.00;;;;;18.83;36.85;100852.50;5075961;27;51171;-51
2022/02/21 07:32:57;;;;;;;;;1.00;1.00;;;;;18.81;36.77;100855.47;5074764;27;51918;-48
2022/02/21 07:35:22;;;;;;;;;1.00;0.00;;;;;18.82;36.78;100865.38;5076067;27;51863;-52
2022/02/21 07:37:48;;;;;;;;;0.50;0.50;;;;;18.82;36.65;100861.78;5075894;27;51063;-49
2022/02/21 07:40:14;;;;;;;;;0.00;0.00;;;;;18.81;36.63;100860.94;5076337;27;51065;-53
2022/02/21 07:42:42;;;;;;;;;0.50;0.50;;;;;18.81;36.70;100849.13;5075813;27;51134;-53
2022/02/21 07:45:08;;;;;;;;;1.00;0.25;;;;;18.80;36.63;100829.09;5075932;27;50937;-51
2022/02/21 07:47:41;;;;;;;;;1.50;0.00;;;;;18.81;36.78;100832.66;5076022;27;51054;-49
2022/02/21 07:50:07;;;;;;;;;1.00;1.00;;;;;18.81;36.44;100843.66;5076228;27;51118;-50
2022/02/21 07:52:33;;;;;;;;;0.50;0.50;;;;;18.80;36.87;100848.28;5075631;27;52299;-51
2022/02/21 07:54:58;;;;;;;;;1.00;0.00;;;;;18.80;36.73;100850.19;5075573;27;50987;-53
2022/02/21 07:57:23;;;;;;;;;2.00;0.00;;;;;18.78;36.65;100846.81;5075867;27;51170;-51
2022/02/21 07:59:49;;;;;;;;;1.50;1.00;;;;;18.79;36.65;100832.03;5075958;27;51252;-51
2022/02/21 08:02:14;;;;;;;;;1.00;0.50;;;;;18.79;36.58;100857.59;5075525;27;51022;-50
2022/02/21 08:04:39;;;;;;;;;1.00;1.00;;;;;18.79;36.89;100857.59;5075877;27;51002;-51
2022/02/21 08:07:05;;;;;;;;;1.50;1.50;;;;;18.79;36.87;100863.06;5075780;27;51134;-52
2022/02/21 08:09:31;;;;;;;;;0.50;0.25;;;;;18.79;36.72;100854.00;5075565;27;51214;-52
2022/02/21 08:11:56;;;;;;;;;1.00;1.00;;;;;18.78;36.83;100861.38;5075420;27;51710;-53
2022/02/21 08:14:22;;;;;;;;;0.00;0.00;;;;;18.79;36.65;100849.34;5075130;28;50963;-51
2022/02/21 08:16:47;;;;;;;;;0.00;0.00;;;;;18.78;36.63;100855.91;5075548;27;51069;-53
2022/02/21 08:19:13;;;;;;;;;1.00;1.00;;;;;18.79;36.62;100854.84;5074610;28;50991;-50
2022/02/21 08:21:38;;;;;;;;;1.50;0.00;;;;;18.79;36.75;100859.47;5075238;27;51062;-51
2022/02/21 08:24:05;;;;;;;;;0.75;0.00;;;;;18.78;36.62;100864.13;5075332;27;51108;-49
2022/02/21 08:26:31;;;;;;;;;2.00;1.00;;;;;18.79;36.80;100854.00;5074814;27;51052;-50
2022/02/21 08:28:56;;;;;;;;;1.00;1.00;;;;;18.78;36.73;100861.38;5075858;27;51375;-54
2022/02/21 08:31:21;;;;;;;;;1.75;0.75;;;;;18.79;36.75;100874.06;5074895;27;51751;-51
2022/02/21 08:33:46;;;;;;;;;1.75;0.50;;;;;18.78;36.83;100871.53;5075248;27;51132;-52
2022/02/21 08:36:12;;;;;;;;;1.00;0.75;;;;;18.79;36.71;100862.22;5075329;27;50981;-50
2022/02/21 08:38:37;;;;;;;;;1.00;0.00;;;;;18.78;36.65;100861.38;5075492;27;51428;-47
2022/02/21 08:41:03;;;;;;;;;0.50;0.00;;;;;18.78;36.66;100868.78;5074904;27;51059;-51
2022/02/21 08:43:28;;;;;;;;;2.00;1.00;;;;;18.78;36.57;100866.03;5075717;27;51045;-51
2022/02/21 08:45:57;;;;;;;;;2.00;0.75;;;;;18.78;36.92;100861.38;5078276;27;51195;-50
2022/02/21 08:48:23;;;;;;;;;1.25;1.00;;;;;18.79;36.99;100878.69;5079064;27;50949;-52
2022/02/21 08:50:49;;;;;;;;;1.50;1.00;;;;;18.79;36.86;100873.22;5111050;27;52862;-53
2022/02/21 08:53:15;;;;;;;;;0.75;0.75;;;;;18.78;36.75;100877.84;5078666;27;51147;-53
2022/02/21 08:55:40;;;;;;;;;1.00;0.00;;;;;18.78;36.56;100888.81;5078646;27;51188;-50
2022/02/21 08:58:05;;;;;;;;;1.25;1.00;;;;;18.78;36.72;100869.63;5078764;28;51127;-50
2022/02/21 09:00:30;;;;;;;;;1.50;0.50;;;;;18.79;36.66;100873.22;5077879;27;51816;-52
2022/02/21 09:02:57;;;;;;;;;0.50;0.50;;;;;18.78;36.96;100885.25;5078625;27;51026;-51
2022/02/21 09:05:25;;;;;;;;;1.00;1.00;;;;;18.79;36.76;100884.19;5078495;27;51029;-54
2022/02/21 09:07:51;;;;;;;;;1.00;1.00;;;;;18.79;36.70;100879.53;5110630;27;51055;-50
2022/02/21 09:10:16;;;;;;;;;4.00;3.25;;;;;18.79;36.79;100879.53;5077984;27;51961;-53
2022/02/21 09:12:42;;;;;;;;;1.25;1.25;;;;;18.79;36.61;100879.53;5078337;27;51024;-53
2022/02/21 09:15:07;;;;;;;;;2.25;1.00;;;;;18.80;36.78;100888.63;5078261;27;51157;-57
2022/02/21 09:17:33;;;;;;;;;3.75;1.25;;;;;18.80;36.85;100872.16;5078524;27;51062;-49
2022/02/21 09:19:58;;;;;;;;;4.00;2.00;;;;;18.81;36.87;100880.16;5078076;27;51726;-51
2022/02/21 09:22:24;;;;;;;;;1.50;1.50;;;;;18.80;36.71;100889.47;5077997;27;51128;-53
2022/02/21 09:24:50;;;;;;;;;1.00;1.00;;;;;18.81;36.81;100871.09;5077879;27;51011;-51
2022/02/21 09:27:16;;;;;;;;;1.00;1.00;;;;;18.81;36.77;100866.44;5078117;27;50980;-51
2022/02/21 09:29:42;;;;;;;;;2.50;0.25;;;;;18.82;36.65;100867.28;5103243;27;51989;-53
2022/02/21 09:32:08;;;;;;;;;2.00;1.00;;;;;18.82;36.73;100853.56;5077774;27;51059;-50
2022/02/21 09:34:33;;;;;;;;;3.00;1.75;;;;;18.83;36.68;100849.75;5077850;27;51034;-54
2022/02/21 09:36:58;;;;;;;;;1.25;1.25;;;;;18.83;36.68;100855.25;5077776;27;51283;-53
2022/02/21 09:39:24;;;;;;;;;2.00;1.00;;;;;18.83;36.60;100852.50;5077617;27;51807;-52
2022/02/21 09:41:49;;;;;;;;;1.75;0.75;;;;;18.84;36.59;100860.53;5093249;27;51003;-49
2022/02/21 09:44:15;;;;;;;;;2.00;2.00;;;;;18.85;36.62;100858.63;5077846;28;51036;-54
2022/02/21 09:46:42;;;;;;;;;1.25;1.25;;;;;18.87;36.45;100854.63;5077736;27;51426;-52
2022/02/21 09:49:08;;;;;;;;;1.00;0.00;;;;;18.88;36.58;100861.81;5077209;27;52104;-54
2022/02/21 09:51:34;;;;;;;;;4.75;1.25;;;;;18.90;36.59;100856.94;5077221;27;51042;-52
2022/02/21 09:54:01;;;;;;;;;2.00;1.00;;;;;18.92;36.69;100852.09;5077760;27;51013;-52
2022/02/21 09:56:26;;;;;;;;;0.75;0.75;;;;;18.94;36.53;100871.09;5076794;27;51312;-54
2022/02/21 09:58:54;;;;;;;;;2.00;0.00;;;;;18.95;36.32;100865.38;5077575;27;51042;-50
2022/02/21 10:01:26;;;;;;;;;2.50;0.25;;;;;18.98;36.46;100870.47;5076073;27;50993;-53
2022/02/21 10:03:57;;;;;;;;;2.00;1.00;;;;;19.00;36.43;100876.59;5077523;27;51066;-53
2022/02/21 10:06:25;;;;;;;;;4.00;1.25;;;;;19.01;36.32;100871.94;5077808;27;51041;-54
2022/02/21 10:09:00;;;;;;;;;1.00;1.00;;;;;19.01;36.49;100874.69;5077412;28;52147;-50
2022/02/21 10:11:32;;;;;;;;;3.00;2.00;;;;;19.00;36.59;100871.09;5076919;27;51308;-49
2022/02/21 10:14:00;;;;;;;;;1.00;1.00;;;;;19.01;36.57;100878.28;5077349;27;51028;-53
2022/02/21 10:16:38;;;;;;;;;2.50;1.25;;;;;19.02;36.35;100887.34;5077487;27;51188;-53
2022/02/21 10:19:11;;;;;;;;;1.75;1.25;;;;;19.02;36.48;100899.16;5076951;27;51023;-51
2022/02/21 10:21:49;;;;;;;;;3.00;1.00;;;;;19.03;36.57;100892.63;5076830;27;51147;-52
2022/02/21 10:24:15;;;;;;;;;2.75;2.00;;;;;19.04;36.23;100877.84;5077030;27;51089;-52
2022/02/21 10:26:44;;;;;;;;;2.50;1.00;;;;;19.05;36.46;100895.16;5077078;27;51032;-49
2022/02/21 10:29:10;;;;;;;;;1.25;0.75;;;;;19.07;36.23;100886.69;5076751;27;51980;-53
2022/02/21 10:31:37;;;;;;;;;2.00;1.00;;;;;19.07;35.98;100901.31;5076767;27;51067;-53
2022/02/21 10:34:05;;;;;;;;;1.75;0.75;;;;;19.08;36.25;100904.88;5077123;27;51315;-54
2022/02/21 10:36:35;;;;;;;;;1.50;1.25;;;;;19.10;36.00;100894.53;5076836;27;51219;-53
2022/02/21 10:39:11;;;;;;;;;0.75;0.25;;;;;19.10;36.25;100889.88;5076667;27;52960;-53
2022/02/21 10:41:46;;;;;;;;;5.75;2.00;;;;;19.11;36.13;100896.22;5076854;27;51135;-53
2022/02/21 10:44:19;;;;;;;;;4.00;1.25;;;;;19.11;36.15;100897.06;5076706;27;51091;-51
2022/02/21 10:47:13;;;;;;;;;2.75;1.00;;;;;19.12;35.99;100895.16;5077172;27;51255;-52
2022/02/21 10:49:51;;;;;;;;;1.75;1.50;;;;;19.14;36.01;100901.28;5076179;27;51759;-53
2022/02/21 10:52:20;;;;;;;;;1.75;1.00;;;;;19.13;36.15;100897.69;5076790;27;51209;-53
2022/02/21 10:54:46;;;;;;;;;1.50;1.50;;;;;19.16;36.10;100905.50;5076501;28;51107;-50
2022/02/21 10:57:14;;;;;;;;;3.00;2.00;;;;;19.17;35.92;100904.44;5075608;27;51132;-52
2022/02/21 10:59:40;;;;;;;;;2.25;1.00;;;;;19.19;36.15;100891.38;5076478;27;51778;-53
2022/02/21 11:02:07;;;;;;;;;4.25;2.00;;;;;19.20;35.83;100898.53;5108856;27;51071;-50
2022/02/21 11:04:36;;;;;;;;;4.00;1.50;;;;;19.21;35.89;100907.63;5076649;27;51107;-53
2022/02/21 11:07:02;;;;;;;;;5.25;1.00;;;;;19.22;35.78;100881.84;5076737;27;50969;-53
2022/02/21 11:09:30;;;;;;;;;3.00;1.00;;;;;19.21;35.99;100892.00;5074486;28;51555;-53
2022/02/21 11:11:58;;;;;;;;;3.75;2.50;;;;;19.20;35.83;100887.56;5076002;27;51177;-51
2022/02/21 11:14:27;;;;;;;;;1.00;1.00;;;;;19.19;35.99;100885.88;5075703;27;50971;-51
2022/02/21 11:16:54;;;;;;;;;1.25;1.25;;;;;19.21;35.79;100907.63;5076316;27;51158;-50
2022/02/21 11:19:20;;;;;;;;;2.25;1.25;;;;;19.21;35.84;100885.66;5075649;27;54074;-50